Wetterdaten: Woche 07.01.02 - 13.01.02 (KW2)
Datum Zeit Temperatur Luftfeuchte Luftdruck Regenmenge Wind Richtung Taupunkt Windchill
07.01.2002 00:00 -6.9 C 80 % 1034.6 hPa 0.0 l/m 0.1 km/h (0 Bft) N -9.7 C -6.9 C
07.01.2002 01:00 -7.1 C 78 % 1033.7 hPa 0.0 l/m 0.2 km/h (0 Bft) W -10.2 C -7.1 C
07.01.2002 02:00 -7.4 C 79 % 1033.4 hPa 0.0 l/m 1.9 km/h (1 Bft) W -10.3 C -8.1 C
07.01.2002 03:00 -7.0 C 79 % 1034.1 hPa 0.0 l/m 0.0 km/h (0 Bft) N -10.0 C -7.0 C
07.01.2002 04:00 -7.3 C 81 % 1033.5 hPa 0.0 l/m 0.0 km/h (0 Bft) N -10.0 C -7.3 C
07.01.2002 05:00 -6.6 C 80 % 1032.9 hPa 0.0 l/m 0.3 km/h (0 Bft) N -9.5 C -6.6 C
07.01.2002 06:00 -6.3 C 77 % 1032.5 hPa 0.0 l/m 0.0 km/h (0 Bft) N -9.6 C -6.3 C
07.01.2002 07:00 -5.8 C 77 % 1032.5 hPa 0.0 l/m 0.0 km/h (0 Bft) N -9.2 C -5.8 C
07.01.2002 08:00 -5.5 C 78 % 1032.5 hPa 0.0 l/m 0.0 km/h (0 Bft) N -8.8 C -5.5 C
07.01.2002 09:00 -4.5 C 77 % 1032.5 hPa 0.0 l/m 2.3 km/h (1 Bft) O-SO -7.9 C -5.4 C
07.01.2002 10:00 -4.0 C 76 % 1032.3 hPa 0.0 l/m 0.2 km/h (0 Bft) W-NW -7.5 C -4.0 C
07.01.2002 11:00 -2.6 C 76 % 1031.1 hPa 0.0 l/m 0.2 km/h (0 Bft) O-NO -6.3 C -2.6 C
07.01.2002 12:00 -2.4 C 75 % 1030.0 hPa 0.0 l/m 1.6 km/h (1 Bft) W-NW -6.3 C -2.9 C
07.01.2002 13:00 -1.1 C 76 % 1029.1 hPa 0.0 l/m 3.9 km/h (1 Bft) O-SO -4.7 C -2.3 C
07.01.2002 14:00 0.3 C 78 % 1028.3 hPa 0.0 l/m 8.1 km/h (2 Bft) O-SO -3.1 C -2.0 C
07.01.2002 15:00 0.2 C 77 % 1028.3 hPa 0.0 l/m 16.5 km/h (3 Bft) O-SO -3.4 C -4.2 C
07.01.2002 16:00 0.1 C 74 % 1028.3 hPa 0.0 l/m 8.3 km/h (2 Bft) N-NO -3.9 C -2.2 C
07.01.2002 17:00 -0.2 C 74 % 1028.3 hPa 0.0 l/m 6.7 km/h (2 Bft) NO -4.2 C -2.1 C
07.01.2002 18:00 -0.3 C 73 % 1028.3 hPa 0.0 l/m 7.5 km/h (2 Bft) NO -4.4 C -2.4 C
07.01.2002 19:00 -0.4 C 73 % 1029.1 hPa 0.0 l/m 7.7 km/h (2 Bft) NO -4.6 C -2.7 C
07.01.2002 20:00 -0.5 C 73 % 1029.3 hPa 0.0 l/m 8.6 km/h (2 Bft) NO -4.7 C -2.5 C
07.01.2002 21:00 -0.5 C 73 % 1029.3 hPa 0.0 l/m 11.6 km/h (2 Bft) O-NO -4.7 C -3.7 C
07.01.2002 22:00 -0.7 C 73 % 1030.2 hPa 0.0 l/m 6.5 km/h (2 Bft) O -4.8 C -2.5 C
07.01.2002 23:00 -0.7 C 73 % 1030.4 hPa 0.0 l/m 7.5 km/h (2 Bft) O -5.0 C -2.9 C
08.01.2002 00:00 -0.9 C 73 % 1030.4 hPa 0.0 l/m 7.3 km/h (2 Bft) O-SO -5.2 C -3.3 C
08.01.2002 01:00 -1.2 C 72 % 1030.4 hPa 0.0 l/m 2.1 km/h (1 Bft) NO -5.5 C -1.8 C
08.01.2002 02:00 -1.6 C 74 % 1030.4 hPa 0.0 l/m 1.1 km/h (1 Bft) O-SO -5.6 C -1.9 C
08.01.2002 03:00 -1.6 C 73 % 1031.4 hPa 0.0 l/m 0.9 km/h (0 Bft) O-SO -5.7 C -1.8 C
08.01.2002 04:00 -1.7 C 75 % 1032.2 hPa 0.0 l/m 0.9 km/h (0 Bft) O-SO -5.5 C -1.9 C
08.01.2002 05:00 -1.9 C 74 % 1032.7 hPa 0.0 l/m 5.0 km/h (1 Bft) O-SO -5.9 C -3.6 C
08.01.2002 06:00 -2.0 C 74 % 1033.5 hPa 0.0 l/m 2.3 km/h (1 Bft) O-SO -5.9 C -2.5 C
08.01.2002 07:00 -2.1 C 75 % 1034.5 hPa 0.0 l/m 2.0 km/h (1 Bft) O -5.9 C -2.7 C
08.01.2002 08:00 -2.4 C 75 % 1034.6 hPa 0.0 l/m 0.5 km/h (0 Bft) O-NO -6.1 C -2.5 C
08.01.2002 09:00 -2.1 C 75 % 1035.5 hPa 0.0 l/m 3.7 km/h (1 Bft) O-SO -5.9 C -3.3 C
08.01.2002 10:00 -1.9 C 74 % 1036.5 hPa 0.0 l/m 0.6 km/h (0 Bft) O-SO -6.0 C -2.1 C
08.01.2002 11:00 -1.5 C 73 % 1036.7 hPa 0.0 l/m 1.1 km/h (1 Bft) NO -5.8 C -1.9 C
08.01.2002 12:00 -1.0 C 71 % 1036.7 hPa 0.0 l/m 3.6 km/h (1 Bft) O-SO -5.5 C -2.1 C
08.01.2002 13:00 -1.0 C 72 % 1035.7 hPa 0.0 l/m 2.7 km/h (1 Bft) O-SO -5.4 C -1.6 C
08.01.2002 14:00 -0.7 C 74 % 1035.6 hPa 0.0 l/m 0.0 km/h (0 Bft) N -4.7 C -0.7 C
08.01.2002 15:00 -0.9 C 75 % 1035.6 hPa 0.0 l/m 2.3 km/h (1 Bft) W-NW -4.8 C -1.6 C
08.01.2002 16:00 -2.4 C 80 % 1035.9 hPa 0.0 l/m 0.1 km/h (0 Bft) N -5.4 C -2.4 C
08.01.2002 17:00 -3.4 C 84 % 1036.7 hPa 0.0 l/m 4.3 km/h (1 Bft) O -5.7 C -4.8 C
08.01.2002 18:00 -4.1 C 85 % 1036.7 hPa 0.0 l/m 0.5 km/h (0 Bft) O -6.3 C -4.1 C
08.01.2002 19:00 -5.2 C 87 % 1037.1 hPa 0.0 l/m 1.1 km/h (0 Bft) O -7.1 C -5.4 C
08.01.2002 20:00 -5.9 C 87 % 1037.7 hPa 0.0 l/m 0.0 km/h (0 Bft) N -7.7 C -5.9 C
08.01.2002 21:00 -6.3 C 88 % 1037.7 hPa 0.0 l/m 1.3 km/h (1 Bft) O -8.0 C -6.5 C
08.01.2002 22:00 -6.3 C 88 % 1037.7 hPa 0.0 l/m 0.4 km/h (0 Bft) O -8.0 C -6.3 C
08.01.2002 23:00 -5.1 C 88 % 1037.7 hPa 0.0 l/m 0.0 km/h (0 Bft) N -6.8 C -5.1 C
09.01.2002 00:00 -4.4 C 87 % 1037.8 hPa 0.0 l/m 0.6 km/h (0 Bft) O-SO -6.2 C -4.5 C
09.01.2002 01:00 -4.2 C 88 % 1038.7 hPa 0.0 l/m 1.4 km/h (1 Bft) O-SO -5.9 C -4.8 C
09.01.2002 02:00 -4.4 C 86 % 1038.7 hPa 0.0 l/m 1.8 km/h (1 Bft) O-SO -6.3 C -4.8 C
09.01.2002 03:00 -4.6 C 87 % 1038.7 hPa 0.0 l/m 2.1 km/h (1 Bft) O-SO -6.4 C -5.3 C
09.01.2002 04:00 -4.5 C 87 % 1038.7 hPa 0.0 l/m 1.0 km/h (0 Bft) O-SO -6.4 C -4.8 C
09.01.2002 05:00 -4.7 C 87 % 1038.7 hPa 0.0 l/m 2.1 km/h (1 Bft) O-SO -6.5 C -5.4 C
09.01.2002 06:00 -4.9 C 87 % 1039.4 hPa 0.0 l/m 1.8 km/h (1 Bft) O-SO -6.8 C -5.5 C
09.01.2002 07:00 -5.0 C 85 % 1039.8 hPa 0.0 l/m 1.5 km/h (1 Bft) O-SO -7.1 C -5.5 C
09.01.2002 08:00 -4.9 C 85 % 1039.8 hPa 0.0 l/m 0.8 km/h (0 Bft) O-SO -7.1 C -5.2 C
09.01.2002 09:00 -4.7 C 84 % 1040.7 hPa 0.0 l/m 0.9 km/h (0 Bft) O -7.1 C -5.0 C
09.01.2002 10:00 -4.5 C 83 % 1040.8 hPa 0.0 l/m 0.8 km/h (0 Bft) SO -7.0 C -4.8 C
09.01.2002 11:00 -4.2 C 81 % 1040.9 hPa 0.0 l/m 0.3 km/h (0 Bft) O -7.0 C -4.2 C
09.01.2002 12:00 -3.8 C 78 % 1040.8 hPa 0.0 l/m 1.7 km/h (1 Bft) O-SO -7.1 C -4.3 C
09.01.2002 13:00 -3.6 C 76 % 1040.8 hPa 0.0 l/m 0.5 km/h (0 Bft) O-NO -7.2 C -3.6 C
09.01.2002 14:00 -3.1 C 74 % 1040.8 hPa 0.0 l/m 1.5 km/h (1 Bft) O-SO -7.0 C -3.5 C
09.01.2002 15:00 -2.8 C 73 % 1040.8 hPa 0.0 l/m 0.3 km/h (0 Bft) O-SO -7.0 C -2.9 C
09.01.2002 16:00 -3.3 C 77 % 1040.8 hPa 0.0 l/m 1.2 km/h (1 Bft) O-SO -6.7 C -3.6 C
09.01.2002 17:00 -4.0 C 82 % 1040.8 hPa 0.0 l/m 0.0 km/h (0 Bft) N -6.6 C -4.0 C
09.01.2002 18:00 -3.8 C 80 % 1040.8 hPa 0.0 l/m 4.1 km/h (1 Bft) O-SO -6.8 C -5.4 C
09.01.2002 19:00 -4.0 C 80 % 1040.8 hPa 0.0 l/m 3.8 km/h (1 Bft) O-SO -6.8 C -5.4 C
09.01.2002 20:00 -4.1 C 80 % 1040.8 hPa 0.0 l/m 2.5 km/h (1 Bft) O-SO -7.2 C -5.1 C
09.01.2002 21:00 -4.3 C 80 % 1040.8 hPa 0.0 l/m 1.4 km/h (1 Bft) O -7.2 C -4.8 C
09.01.2002 22:00 -4.4 C 80 % 1040.8 hPa 0.0 l/m 1.7 km/h (1 Bft) O-SO -7.3 C -5.0 C
09.01.2002 23:00 -4.5 C 81 % 1040.8 hPa 0.0 l/m 2.1 km/h (1 Bft) O-SO -7.2 C -5.2 C
10.01.2002 00:00 -4.7 C 82 % 1040.8 hPa 0.0 l/m 0.4 km/h (0 Bft) O-SO -7.3 C -4.8 C
10.01.2002 01:00 -5.1 C 82 % 1040.6 hPa 0.0 l/m 0.8 km/h (0 Bft) SO -7.6 C -5.2 C
10.01.2002 02:00 -5.3 C 82 % 1040.7 hPa 0.0 l/m 0.4 km/h (0 Bft) O-SO -7.8 C -5.4 C
10.01.2002 03:00 -5.7 C 82 % 1040.5 hPa 0.0 l/m 4.0 km/h (1 Bft) O-SO -8.3 C -7.0 C
10.01.2002 04:00 -5.9 C 83 % 1039.8 hPa 0.0 l/m 2.6 km/h (1 Bft) O-SO -8.3 C -6.9 C
10.01.2002 05:00 -5.9 C 83 % 1039.8 hPa 0.0 l/m 7.3 km/h (2 Bft) O-SO -8.2 C -9.2 C
10.01.2002 06:00 -5.8 C 82 % 1039.8 hPa 0.0 l/m 2.1 km/h (1 Bft) O-SO -8.3 C -6.6 C
10.01.2002 07:00 -5.8 C 82 % 1039.8 hPa 0.0 l/m 1.4 km/h (1 Bft) O-SO -8.3 C -6.4 C
10.01.2002 08:00 -5.8 C 82 % 1039.8 hPa 0.0 l/m 3.9 km/h (1 Bft) O-SO -8.3 C -7.3 C
10.01.2002 09:00 -5.7 C 80 % 1039.8 hPa 0.0 l/m 2.2 km/h (1 Bft) O-SO -8.6 C -6.7 C
10.01.2002 10:00 -5.3 C 78 % 1039.8 hPa 0.0 l/m 3.7 km/h (1 Bft) O-SO -8.5 C -6.8 C
10.01.2002 11:00 -4.9 C 76 % 1039.8 hPa 0.0 l/m 0.5 km/h (0 Bft) SO -8.4 C -5.1 C
10.01.2002 12:00 -4.4 C 75 % 1038.9 hPa 0.0 l/m 1.1 km/h (0 Bft) O-SO -8.1 C -4.6 C
10.01.2002 13:00 -4.2 C 74 % 1038.0 hPa 0.0 l/m 0.3 km/h (0 Bft) W -8.1 C -4.2 C
10.01.2002 14:00 -3.7 C 74 % 1037.7 hPa 0.0 l/m 0.2 km/h (0 Bft) O-SO -7.7 C -3.7 C
10.01.2002 15:00 -3.9 C 78 % 1037.7 hPa 0.0 l/m 2.6 km/h (1 Bft) W -7.2 C -4.7 C
10.01.2002 16:00 -5.0 C 82 % 1037.5 hPa 0.0 l/m 1.7 km/h (1 Bft) SO -7.6 C -5.6 C
10.01.2002 17:00 -6.2 C 84 % 1037.4 hPa 0.0 l/m 0.0 km/h (0 Bft) N -8.5 C -6.2 C
10.01.2002 18:00 -5.4 C 86 % 1037.1 hPa 0.0 l/m 0.2 km/h (0 Bft) O-SO -7.3 C -5.4 C
10.01.2002 19:00 -4.8 C 85 % 1037.7 hPa 0.0 l/m 1.4 km/h (1 Bft) O-SO -7.0 C -5.4 C
10.01.2002 20:00 -5.1 C 83 % 1037.7 hPa 0.0 l/m 3.5 km/h (1 Bft) O-SO -7.5 C -6.5 C
10.01.2002 21:00 -5.4 C 84 % 1037.7 hPa 0.0 l/m 3.3 km/h (1 Bft) O-SO -7.7 C -6.7 C
10.01.2002 22:00 -5.4 C 85 % 1037.7 hPa 0.0 l/m 7.3 km/h (2 Bft) O-SO -7.6 C -8.7 C
10.01.2002 23:00 -5.5 C 85 % 1037.7 hPa 0.0 l/m 8.1 km/h (2 Bft) O-SO -7.6 C -9.0 C
11.01.2002 00:00 -5.4 C 86 % 1037.7 hPa 0.0 l/m 8.9 km/h (2 Bft) O-SO -7.5 C -9.2 C
11.01.2002 01:00 -5.6 C 85 % 1037.7 hPa 0.0 l/m 7.5 km/h (2 Bft) O-SO -7.6 C -8.9 C
11.01.2002 02:00 -5.6 C 86 % 1037.7 hPa 0.0 l/m 7.9 km/h (2 Bft) O-SO -7.6 C -9.2 C
11.01.2002 03:00 -5.6 C 85 % 1037.7 hPa 0.0 l/m 4.4 km/h (1 Bft) O-SO -7.7 C -7.1 C
11.01.2002 04:00 -5.3 C 85 % 1037.7 hPa 0.0 l/m 3.4 km/h (1 Bft) O-SO -7.4 C -6.5 C
11.01.2002 05:00 -5.4 C 83 % 1037.7 hPa 0.0 l/m 0.5 km/h (0 Bft) O-SO -7.8 C -5.6 C
11.01.2002 06:00 -5.5 C 83 % 1037.7 hPa 0.0 l/m 0.0 km/h (0 Bft) N -7.9 C -5.5 C
11.01.2002 07:00 -5.4 C 82 % 1037.7 hPa 0.0 l/m 4.1 km/h (1 Bft) O-SO -8.0 C -7.2 C
11.01.2002 08:00 -5.3 C 82 % 1037.7 hPa 0.0 l/m 5.8 km/h (2 Bft) O-SO -7.9 C -7.8 C
11.01.2002 09:00 -5.0 C 80 % 1038.1 hPa 0.0 l/m 4.5 km/h (1 Bft) O-SO -8.0 C -7.0 C
11.01.2002 10:00 -4.6 C 79 % 1038.7 hPa 0.0 l/m 3.6 km/h (1 Bft) O-SO -7.7 C -5.8 C
11.01.2002 11:00 -4.0 C 76 % 1038.7 hPa 0.0 l/m 5.1 km/h (1 Bft) O-SO -7.5 C -5.9 C
11.01.2002 12:00 -2.8 C 73 % 1037.9 hPa 0.0 l/m 5.1 km/h (1 Bft) O-SO -7.0 C -4.6 C
11.01.2002 13:00 -1.7 C 71 % 1037.4 hPa 0.0 l/m 3.6 km/h (1 Bft) O-SO -6.3 C -2.9 C
11.01.2002 14:00 -1.4 C 72 % 1036.7 hPa 0.0 l/m 4.2 km/h (1 Bft) W -5.9 C -2.7 C
11.01.2002 15:00 -2.0 C 75 % 1036.7 hPa 0.0 l/m 3.3 km/h (1 Bft) W-NW -5.9 C -3.1 C
11.01.2002 16:00 -3.4 C 79 % 1036.7 hPa 0.0 l/m 0.3 km/h (0 Bft) W -6.6 C -3.4 C
11.01.2002 17:00 -5.1 C 83 % 1036.7 hPa 0.0 l/m 0.2 km/h (0 Bft) S-SW -7.5 C -5.1 C
11.01.2002 18:00 -5.7 C 85 % 1036.7 hPa 0.0 l/m 0.2 km/h (0 Bft) SO -7.8 C -5.7 C
11.01.2002 19:00 -5.7 C 86 % 1036.7 hPa 0.0 l/m 0.0 km/h (0 Bft) N -7.6 C -5.7 C
11.01.2002 20:00 -5.0 C 87 % 1036.7 hPa 0.0 l/m 0.4 km/h (0 Bft) S -6.9 C -5.0 C
11.01.2002 21:00 -4.7 C 86 % 1036.7 hPa 0.0 l/m 0.2 km/h (0 Bft) W -6.7 C -4.7 C
11.01.2002 22:00 -4.6 C 84 % 1036.7 hPa 0.0 l/m 0.0 km/h (0 Bft) N -6.8 C -4.6 C
11.01.2002 23:00 -4.5 C 86 % 1036.7 hPa 0.0 l/m 0.5 km/h (0 Bft) SW -6.5 C -4.6 C
12.01.2002 00:00 -5.0 C 86 % 1036.7 hPa 0.0 l/m 0.2 km/h (0 Bft) SW -6.9 C -5.0 C
12.01.2002 01:00 -4.5 C 87 % 1036.7 hPa 0.0 l/m 0.0 km/h (0 Bft) N -6.4 C -4.5 C
12.01.2002 02:00 -4.4 C 85 % 1036.7 hPa 0.0 l/m 0.0 km/h (0 Bft) N -6.5 C -4.4 C
12.01.2002 03:00 -4.0 C 83 % 1036.7 hPa 0.0 l/m 0.0 km/h (0 Bft) N -6.4 C -4.0 C
12.01.2002 04:00 -3.7 C 83 % 1036.7 hPa 0.0 l/m 0.1 km/h (0 Bft) S-SO -6.1 C -3.7 C
12.01.2002 05:00 -3.5 C 83 % 1035.9 hPa 0.0 l/m 0.0 km/h (0 Bft) N -5.9 C -3.5 C
12.01.2002 06:00 -3.1 C 84 % 1036.0 hPa 0.0 l/m 0.0 km/h (0 Bft) N -5.4 C -3.1 C
12.01.2002 07:00 -2.5 C 86 % 1036.5 hPa 0.0 l/m 2.5 km/h (1 Bft) O-SO -4.6 C -3.2 C
12.01.2002 08:00 -2.1 C 83 % 1036.7 hPa 0.0 l/m 2.2 km/h (1 Bft) O -4.5 C -2.6 C
12.01.2002 09:00 -1.7 C 82 % 1036.7 hPa 0.0 l/m 1.5 km/h (1 Bft) O -4.4 C -1.8 C
12.01.2002 10:00 -1.5 C 85 % 1037.6 hPa 0.0 l/m 0.0 km/h (0 Bft) N -3.7 C -1.5 C
12.01.2002 11:00 -0.7 C 83 % 1037.2 hPa 0.0 l/m 0.1 km/h (0 Bft) N -3.2 C -0.7 C
12.01.2002 12:00 -0.0 C 81 % 1036.7 hPa 0.0 l/m 0.2 km/h (0 Bft) NW -2.9 C -0.0 C
12.01.2002 13:00 0.7 C 78 % 1035.6 hPa 0.0 l/m 0.1 km/h (0 Bft) N -2.7 C 0.7 C
12.01.2002 14:00 1.2 C 76 % 1035.6 hPa 0.0 l/m 0.4 km/h (0 Bft) W -2.5 C 1.2 C
12.01.2002 15:00 1.7 C 75 % 1035.6 hPa 0.0 l/m 0.0 km/h (0 Bft) N -2.3 C 1.7 C
12.01.2002 16:00 1.1 C 77 % 1035.2 hPa 0.0 l/m 2.8 km/h (1 Bft) O -2.5 C 0.4 C
12.01.2002 17:00 0.4 C 81 % 1035.3 hPa 0.0 l/m 0.4 km/h (0 Bft) O-SO -2.6 C 0.3 C
12.01.2002 18:00 -0.5 C 84 % 1034.6 hPa 0.0 l/m 2.2 km/h (1 Bft) O-SO -2.9 C -1.1 C
12.01.2002 19:00 -0.5 C 84 % 1034.7 hPa 0.0 l/m 3.6 km/h (1 Bft) O -2.8 C -1.1 C
12.01.2002 20:00 -0.3 C 86 % 1035.1 hPa 0.0 l/m 0.7 km/h (0 Bft) O-SO -2.3 C -0.4 C
12.01.2002 21:00 -0.1 C 90 % 1034.6 hPa 0.0 l/m 0.6 km/h (0 Bft) O-SO -1.6 C -0.2 C
12.01.2002 22:00 -0.2 C 91 % 1034.6 hPa 0.0 l/m 0.0 km/h (0 Bft) N -1.6 C -0.2 C
12.01.2002 23:00 -0.4 C 92 % 1034.6 hPa 0.0 l/m 0.0 km/h (0 Bft) N -1.6 C -0.4 C
13.01.2002 00:00 -0.6 C 92 % 1034.6 hPa 0.0 l/m 1.0 km/h (0 Bft) NO -1.8 C -0.9 C
13.01.2002 01:00 -0.9 C 93 % 1034.6 hPa 0.0 l/m 0.3 km/h (0 Bft) O-SO -2.0 C -1.0 C
13.01.2002 02:00 -1.2 C 93 % 1034.3 hPa 0.0 l/m 1.8 km/h (1 Bft) NW -2.1 C -1.6 C
13.01.2002 03:00 -1.5 C 93 % 1033.5 hPa 0.0 l/m 0.9 km/h (0 Bft) O-SO -2.4 C -1.7 C
13.01.2002 04:00 -1.6 C 93 % 1033.5 hPa 0.0 l/m 1.6 km/h (1 Bft) O -2.6 C -1.9 C
13.01.2002 05:00 -1.8 C 93 % 1033.5 hPa 0.0 l/m 0.7 km/h (0 Bft) O-SO -2.8 C -1.9 C
13.01.2002 06:00 -1.9 C 93 % 1033.5 hPa 0.0 l/m 2.4 km/h (1 Bft) O-SO -2.9 C -2.4 C
13.01.2002 07:00 -2.0 C 92 % 1033.5 hPa 0.0 l/m 2.5 km/h (1 Bft) O-SO -3.1 C -2.8 C
13.01.2002 08:00 -2.1 C 91 % 1033.5 hPa 0.0 l/m 1.6 km/h (1 Bft) O-SO -3.4 C -2.5 C
13.01.2002 09:00 -1.9 C 88 % 1033.5 hPa 0.0 l/m 0.4 km/h (0 Bft) O-SO -3.5 C -2.0 C
13.01.2002 10:00 -1.5 C 88 % 1033.5 hPa 0.0 l/m 0.7 km/h (0 Bft) O -3.3 C -1.7 C
13.01.2002 11:00 -1.1 C 87 % 1032.7 hPa 0.0 l/m 3.7 km/h (1 Bft) O-SO -3.0 C -2.0 C
13.01.2002 12:00 -0.8 C 86 % 1032.4 hPa 0.0 l/m 2.7 km/h (1 Bft) O-SO -2.9 C -1.6 C
13.01.2002 13:00 -0.6 C 83 % 1031.4 hPa 0.0 l/m 1.8 km/h (1 Bft) O-SO -3.1 C -0.9 C
13.01.2002 14:00 -0.7 C 83 % 1031.4 hPa 0.0 l/m 1.4 km/h (1 Bft) O-SO -3.2 C -1.1 C
13.01.2002 15:00 -1.1 C 83 % 1031.4 hPa 0.0 l/m 2.4 km/h (1 Bft) O-SO -3.5 C -1.9 C
13.01.2002 16:00 -1.7 C 85 % 1031.3 hPa 0.0 l/m 6.8 km/h (2 Bft) O-SO -3.8 C -3.9 C
13.01.2002 17:00 -1.8 C 87 % 1031.4 hPa 0.0 l/m 8.9 km/h (2 Bft) O-SO -3.7 C -4.9 C
13.01.2002 18:00 -1.9 C 87 % 1031.3 hPa 0.0 l/m 4.4 km/h (1 Bft) O-SO -3.7 C -3.3 C
13.01.2002 19:00 -1.8 C 88 % 1030.8 hPa 0.0 l/m 7.6 km/h (2 Bft) O-SO -3.5 C -4.6 C
13.01.2002 20:00 -2.1 C 88 % 1030.4 hPa 0.0 l/m 11.3 km/h (2 Bft) O-SO -3.8 C -6.1 C
13.01.2002 21:00 -2.4 C 89 % 1030.4 hPa 0.0 l/m 13.9 km/h (3 Bft) O-SO -4.0 C -7.0 C
13.01.2002 22:00 -2.5 C 88 % 1030.4 hPa 0.0 l/m 8.5 km/h (2 Bft) O-SO -4.2 C -5.5 C
13.01.2002 23:00 -2.4 C 87 % 1030.4 hPa 0.0 l/m 3.3 km/h (1 Bft) O -4.3 C -3.5 C
Min-Datum _ 07.01.02 11.01.02 07.01.02 - 07.01.02 - 07.01.02 07.01.02
_ Min-Zeit 04:38 14:18 02:23 - 00:08 - 02:35 02:17
Minimum _ -7.8 C 67 % 1027.4 hPa - 0.0 km/h (0 Bft) - -10.6 C -12.2 C
Max-Datum _ 12.01.02 13.01.02 09.01.02 07.01.02 07.01.02 - 12.01.02 12.01.02
_ Max-Zeit 15:55 02:56 11:10 00:02 20:59 - 23:26 15:55
Maximum _ 2.3 C 94 % 1041.9 hPa 0.0 l/m 32.1 km/h
NO (5 Bft)
- -1.4 C 2.3 C
Durchschnitt _ -3.3 C 82 % 1035.8 hPa #0.0 l/m 2.5 km/h (1 Bft) O-SO -6.0 C -4.1 C

Durchschnitt Minimum Temp.-3.6 C
Durchschnitt Maximum Temp.-3.0 C
© Kaiko 2002